Time;durP1;ratioP1;P1;durP2;ratioP2;P2;SDS_P1;SDS_P2;PMS_P1;PMS_P2;Temp;Humidity;BMP_temperature;BMP_pressure;BME280_temperature;BME280_humidity;BME280_pressure;Samples;Min_cycle;Max_cycle;Signal;HPM_P1;HPM_P2
2022/03/16 00:02:24;;;;;;;;;;;;;;;5.70;100.00;99196.97;10355882;28;20394;-79
2022/03/16 00:07:26;;;;;;;;;;;;;;;5.58;100.00;99201.78;10354287;28;19940;-84
2022/03/16 00:12:26;;;;;;;;;;;;;;;5.60;100.00;99204.97;10332111;28;19936;-82
2022/03/16 00:17:29;;;;;;;;;;;;;;;5.41;100.00;99212.69;10336416;28;20013;-82
2022/03/16 00:22:29;;;;;;;;;;;;;;;5.46;100.00;99218.00;10377738;28;19929;-80
2022/03/16 00:27:33;;;;;;;;;;;;;;;5.52;100.00;99219.59;10387314;28;19929;-81
2022/03/16 00:32:35;;;;;;;;;;;;;;;5.48;100.00;99217.72;10384347;28;19972;-81
2022/03/16 00:37:38;;;;;;;;;;;;;;;5.49;100.00;99225.47;10369117;28;19936;-81
2022/03/16 00:42:39;;;;;;;;;;;;;;;5.53;100.00;99228.41;10391020;28;19940;-80
2022/03/16 00:47:40;;;;;;;;;;;;;;;5.36;100.00;99229.44;10388641;28;19931;-81
2022/03/16 00:52:44;;;;;;;;;;;;;;;5.17;100.00;99232.88;10353170;28;19952;-81
2022/03/16 00:57:45;;;;;;;;;;;;;;;5.20;100.00;99232.34;10362613;28;19953;-81
2022/03/16 01:02:48;;;;;;;;;;;;;;;5.34;100.00;99228.91;10342823;28;19929;-80
2022/03/16 01:07:50;;;;;;;;;;;;;;;5.15;100.00;99225.16;10387302;28;19936;-81
2022/03/16 01:12:53;;;;;;;;;;;;;;;5.19;100.00;99234.22;10349299;28;19935;-82
2022/03/16 01:17:53;;;;;;;;;;;;;;;5.06;100.00;99230.22;10378486;28;20382;-81
2022/03/16 01:22:54;;;;;;;;;;;;;;;5.03;100.00;99228.09;10366997;28;19934;-81
2022/03/16 01:27:56;;;;;;;;;;;;;;;5.04;100.00;99236.84;10360813;28;19930;-81
2022/03/16 01:32:57;;;;;;;;;;;;;;;5.04;100.00;99237.66;10394133;28;20367;-80
2022/03/16 01:38:01;;;;;;;;;;;;;;;5.05;100.00;99239.25;10327203;28;19940;-81
2022/03/16 01:43:04;;;;;;;;;;;;;;;5.03;100.00;99249.38;10376483;28;19957;-83
2022/03/16 01:48:06;;;;;;;;;;;;;;;5.03;100.00;99237.91;10382056;28;19924;-84
2022/03/16 01:53:08;;;;;;;;;;;;;;;5.05;100.00;99241.13;10384842;28;19972;-84
2022/03/16 01:58:24;;;;;;;;;;;;;;;5.08;100.00;99249.38;10347376;28;19941;-81
2022/03/16 02:03:25;;;;;;;;;;;;;;;5.03;100.00;99243.22;10329601;28;19929;-81
2022/03/16 02:08:30;;;;;;;;;;;;;;;5.08;100.00;99246.69;10349034;28;19936;-84
2022/03/16 02:13:44;;;;;;;;;;;;;;;5.04;100.00;99244.84;10328858;28;20080;-82
2022/03/16 02:18:45;;;;;;;;;;;;;;;5.08;100.00;99251.22;10344074;28;19926;-81
2022/03/16 02:23:48;;;;;;;;;;;;;;;5.06;100.00;99251.50;10333423;28;19949;-82
2022/03/16 02:28:51;;;;;;;;;;;;;;;4.95;100.00;99249.06;10381827;28;19929;-80
2022/03/16 02:33:57;;;;;;;;;;;;;;;4.83;100.00;99247.41;10342659;28;19929;-80
2022/03/16 02:39:30;;;;;;;;;;;;;;;4.59;100.00;99248.16;10389621;28;20498;-80
2022/03/16 02:44:31;;;;;;;;;;;;;;;4.45;100.00;99261.88;10384136;28;19934;-81
2022/03/16 02:49:36;;;;;;;;;;;;;;;4.23;100.00;99271.88;10394652;28;19937;-84
2022/03/16 02:54:52;;;;;;;;;;;;;;;4.23;100.00;99285.16;10359723;28;19992;-82
2022/03/16 02:59:55;;;;;;;;;;;;;;;4.24;100.00;99292.88;10372158;28;19945;-83
2022/03/16 03:04:56;;;;;;;;;;;;;;;4.26;100.00;99295.28;10378955;28;20008;-82
2022/03/16 03:09:58;;;;;;;;;;;;;;;4.35;100.00;99301.72;10374329;28;20017;-82
2022/03/16 03:15:03;;;;;;;;;;;;;;;4.33;100.00;99306.47;10382083;28;19957;-81
2022/03/16 03:20:17;;;;;;;;;;;;;;;4.36;100.00;99305.16;10383202;28;19924;-84
2022/03/16 03:25:39;;;;;;;;;;;;;;;4.34;100.00;99307.28;10408801;28;19921;-82
2022/03/16 03:31:11;;;;;;;;;;;;;;;4.20;100.00;99307.72;10384119;28;19977;-80
2022/03/16 03:36:13;;;;;;;;;;;;;;;4.07;100.00;99318.78;10402566;28;19933;-81
2022/03/16 03:41:29;;;;;;;;;;;;;;;4.09;100.00;99326.50;10346511;28;19961;-80
2022/03/16 03:46:29;;;;;;;;;;;;;;;3.89;100.00;99319.19;10349308;28;19978;-80
2022/03/16 03:51:30;;;;;;;;;;;;;;;3.82;100.00;99337.16;10360555;28;19976;-81
2022/03/16 03:56:32;;;;;;;;;;;;;;;3.74;100.00;99340.28;10361671;28;19933;-80
2022/03/16 04:01:36;;;;;;;;;;;;;;;3.65;100.00;99334.63;10370938;28;19929;-80
2022/03/16 04:06:38;;;;;;;;;;;;;;;3.67;100.00;99349.28;10355734;28;19937;-84
2022/03/16 04:11:39;;;;;;;;;;;;;;;3.79;100.00;99343.78;10378275;28;19926;-83
2022/03/16 04:16:40;;;;;;;;;;;;;;;3.85;100.00;99347.31;10359335;28;19932;-81
2022/03/16 04:21:42;;;;;;;;;;;;;;;3.83;100.00;99338.78;10367017;28;19930;-79
2022/03/16 04:26:42;;;;;;;;;;;;;;;3.75;100.00;99344.53;10366654;28;19985;-80
2022/03/16 04:31:43;;;;;;;;;;;;;;;3.63;100.00;99347.34;10366264;28;19932;-79
2022/03/16 04:36:45;;;;;;;;;;;;;;;3.40;100.00;99353.78;10352323;28;19934;-82
2022/03/16 04:41:48;;;;;;;;;;;;;;;3.19;100.00;99350.06;10378493;28;19925;-82
2022/03/16 04:46:48;;;;;;;;;;;;;;;3.00;100.00;99343.47;10354122;28;20541;-80
2022/03/16 04:51:50;;;;;;;;;;;;;;;2.82;100.00;99363.94;10332771;28;20656;-80
2022/03/16 04:56:50;;;;;;;;;;;;;;;2.80;100.00;99376.66;10372220;28;19968;-80
2022/03/16 05:01:51;;;;;;;;;;;;;;;2.75;100.00;99376.59;10367342;28;19933;-80
2022/03/16 05:06:51;;;;;;;;;;;;;;;2.59;100.00;99379.28;10352954;28;19926;-83
2022/03/16 05:11:51;;;;;;;;;;;;;;;2.51;100.00;99383.94;10357534;28;20020;-81
2022/03/16 05:16:53;;;;;;;;;;;;;;;2.52;100.00;99385.53;10350569;28;19929;-80
2022/03/16 05:21:54;;;;;;;;;;;;;;;2.53;100.00;99389.00;10364740;28;19988;-85
2022/03/16 05:26:56;;;;;;;;;;;;;;;2.39;100.00;99399.13;10392920;28;19914;-82
2022/03/16 05:31:56;;;;;;;;;;;;;;;2.21;100.00;99410.75;10380940;28;20036;-80
2022/03/16 05:36:57;;;;;;;;;;;;;;;2.08;100.00;99419.00;10362293;28;19989;-81
2022/03/16 05:42:00;;;;;;;;;;;;;;;2.04;100.00;99417.88;10401086;28;19928;-82
2022/03/16 05:47:00;;;;;;;;;;;;;;;2.06;100.00;99423.75;10354540;28;19972;-81
2022/03/16 05:52:00;;;;;;;;;;;;;;;2.28;100.00;99432.56;10384024;28;19944;-80
2022/03/16 05:57:02;;;;;;;;;;;;;;;2.38;100.00;99447.88;10368770;28;19975;-78
2022/03/16 06:02:02;;;;;;;;;;;;;;;2.38;100.00;99457.63;10384849;28;19992;-79
2022/03/16 06:07:03;;;;;;;;;;;;;;;2.52;100.00;99456.28;10364064;28;20752;-80
2022/03/16 06:12:04;;;;;;;;;;;;;;;2.53;100.00;99457.88;10370663;28;19933;-80
2022/03/16 06:17:05;;;;;;;;;;;;;;;2.64;100.00;99472.09;10364649;28;19980;-80
2022/03/16 06:22:05;;;;;;;;;;;;;;;2.66;100.00;99470.81;10359505;28;19992;-80
2022/03/16 06:27:06;;;;;;;;;;;;;;;2.72;100.00;99484.94;10396660;28;19930;-80
2022/03/16 06:32:09;;;;;;;;;;;;;;;2.98;100.00;99488.78;10401249;28;19913;-81
2022/03/16 06:37:09;;;;;;;;;;;;;;;3.16;100.00;99499.13;10403298;28;19972;-80
2022/03/16 06:42:10;;;;;;;;;;;;;;;3.25;100.00;99502.16;10360824;28;19952;-83
2022/03/16 06:47:10;;;;;;;;;;;;;;;3.20;100.00;99496.78;10360690;28;19925;-81
2022/03/16 06:52:12;;;;;;;;;;;;;;;3.24;100.00;99490.75;10361042;28;20036;-82
2022/03/16 06:57:13;;;;;;;;;;;;;;;3.25;100.00;99495.00;10344938;28;19930;-78
2022/03/16 07:02:13;;;;;;;;;;;;;;;3.33;100.00;99497.25;10355405;28;19929;-79
2022/03/16 07:07:14;;;;;;;;;;;;;;;3.58;100.00;99494.13;10355073;28;19934;-76
2022/03/16 07:12:14;;;;;;;;;;;;;;;3.76;100.00;99497.50;10333063;28;19929;-77
2022/03/16 07:17:14;;;;;;;;;;;;;;;3.85;100.00;99490.72;10329802;28;19930;-77
2022/03/16 07:22:15;;;;;;;;;;;;;;;4.13;100.00;99498.44;10346267;28;20297;-78
2022/03/16 07:27:15;;;;;;;;;;;;;;;4.31;100.00;99493.84;10345868;28;19937;-77
2022/03/16 07:32:16;;;;;;;;;;;;;;;4.21;100.00;99498.00;10360095;28;19929;-78
2022/03/16 07:37:17;;;;;;;;;;;;;;;4.55;100.00;99493.22;10358012;28;20001;-78
2022/03/16 07:42:18;;;;;;;;;;;;;;;4.65;100.00;99484.53;10378784;28;19949;-78
2022/03/16 07:47:19;;;;;;;;;;;;;;;4.97;100.00;99486.38;10400097;28;20404;-78
2022/03/16 07:52:21;;;;;;;;;;;;;;;5.14;100.00;99489.69;10373302;28;19933;-77
2022/03/16 07:57:22;;;;;;;;;;;;;;;5.24;100.00;99488.94;10344279;28;19932;-77
2022/03/16 08:02:22;;;;;;;;;;;;;;;5.50;100.00;99489.88;10366010;28;19933;-77
2022/03/16 08:07:24;;;;;;;;;;;;;;;5.78;100.00;99481.44;10369586;28;19984;-81
2022/03/16 08:12:25;;;;;;;;;;;;;;;6.25;100.00;99472.53;10370834;28;19940;-81
2022/03/16 08:17:27;;;;;;;;;;;;;;;6.33;100.00;99476.53;10361675;28;19972;-81
2022/03/16 08:22:32;;;;;;;;;;;;;;;6.42;100.00;99491.75;10374053;28;19935;-80
2022/03/16 08:27:33;;;;;;;;;;;;;;;6.67;100.00;99485.59;10377147;28;19933;-81
2022/03/16 08:32:33;;;;;;;;;;;;;;;6.89;100.00;99474.66;10373373;28;19929;-84
2022/03/16 08:37:34;;;;;;;;;;;;;;;6.95;100.00;99468.25;10355081;28;19925;-80
2022/03/16 08:42:34;;;;;;;;;;;;;;;7.11;100.00;99475.13;10403234;28;19926;-83
2022/03/16 08:47:43;;;;;;;;;;;;;;;7.40;100.00;99456.63;10385369;28;19954;-80
2022/03/16 08:52:45;;;;;;;;;;;;;;;7.55;100.00;99461.13;10370179;28;19933;-80
2022/03/16 08:57:46;;;;;;;;;;;;;;;7.78;100.00;99474.94;10390409;28;19933;-82
2022/03/16 09:02:56;;;;;;;;;;;;;;;7.57;100.00;99471.53;10365465;28;19925;-81
2022/03/16 09:07:57;;;;;;;;;;;;;;;7.64;100.00;99467.50;10358061;28;19933;-83
2022/03/16 09:12:58;;;;;;;;;;;;;;;7.83;100.00;99458.84;10373475;28;20011;-82
2022/03/16 09:17:59;;;;;;;;;;;;;;;7.80;100.00;99451.41;10375198;28;19930;-80
2022/03/16 09:23:02;;;;;;;;;;;;;;;8.24;100.00;99454.88;10376744;28;20661;-80
2022/03/16 09:28:03;;;;;;;;;;;;;;;8.38;100.00;99449.69;10370918;28;19978;-79
2022/03/16 09:33:04;;;;;;;;;;;;;;;8.65;100.00;99443.88;10340498;28;19957;-81
2022/03/16 09:38:04;;;;;;;;;;;;;;;8.69;100.00;99442.25;10368734;28;19932;-79
2022/03/16 09:43:08;;;;;;;;;;;;;;;8.86;100.00;99449.03;10357588;28;20291;-79
2022/03/16 09:48:12;;;;;;;;;;;;;;;8.88;100.00;99438.84;10383977;28;19929;-83
2022/03/16 09:53:14;;;;;;;;;;;;;;;9.14;100.00;99429.44;10361280;28;19933;-80
2022/03/16 09:58:16;;;;;;;;;;;;;;;9.09;100.00;99434.88;10397866;28;19909;-81
2022/03/16 10:03:16;;;;;;;;;;;;;;;9.25;100.00;99433.63;10407911;23;19937;-82
2022/03/16 10:08:24;;;;;;;;;;;;;;;9.21;100.00;99445.19;10350666;28;19929;-82
2022/03/16 10:13:25;;;;;;;;;;;;;;;10.12;100.00;99451.25;10320674;28;20803;-81
2022/03/16 10:18:26;;;;;;;;;;;;;;;10.67;100.00;99443.44;10374404;28;19979;-81
2022/03/16 10:23:28;;;;;;;;;;;;;;;10.61;100.00;99450.81;10373484;28;20087;-83
2022/03/16 10:28:35;;;;;;;;;;;;;;;10.43;100.00;99436.31;10360684;28;19925;-81
2022/03/16 10:33:58;;;;;;;;;;;;;;;10.82;100.00;99424.38;10379743;28;19914;-85
2022/03/16 10:39:03;;;;;;;;;;;;;;;10.95;100.00;99430.84;10400618;28;20018;-81
2022/03/16 10:49:32;;;;;;;;;;;;;;;10.82;100.00;99414.44;10409879;28;19933;-82
2022/03/16 10:54:38;;;;;;;;;;;;;;;10.40;100.00;99402.00;10372066;28;19932;-81
2022/03/16 10:59:52;;;;;;;;;;;;;;;10.98;100.00;99398.84;10348238;28;19970;-81
2022/03/16 11:04:54;;;;;;;;;;;;;;;11.18;100.00;99389.59;10364544;28;19934;-81
2022/03/16 11:10:13;;;;;;;;;;;;;;;11.28;100.00;99393.97;10334107;28;19989;-80
2022/03/16 11:15:14;;;;;;;;;;;;;;;10.90;100.00;99383.41;10363749;28;19929;-82
2022/03/16 11:20:17;;;;;;;;;;;;;;;11.15;100.00;99373.25;10382315;28;20071;-84
2022/03/16 11:25:21;;;;;;;;;;;;;;;11.27;100.00;99354.75;10329297;28;20039;-79
2022/03/16 11:30:37;;;;;;;;;;;;;;;11.60;100.00;99353.47;10369468;28;19926;-80
2022/03/16 11:35:44;;;;;;;;;;;;;;;12.39;100.00;99347.59;10359760;28;19934;-80
2022/03/16 11:40:52;;;;;;;;;;;;;;;12.40;100.00;99345.69;10327747;28;20009;-82
2022/03/16 11:46:00;;;;;;;;;;;;;;;12.54;100.00;99335.66;10333026;28;20456;-80
2022/03/16 11:51:17;;;;;;;;;;;;;;;12.49;100.00;99333.88;10356986;28;20433;-80
2022/03/16 11:56:23;;;;;;;;;;;;;;;12.56;100.00;99335.34;10344103;28;19949;-79
2022/03/16 12:01:37;;;;;;;;;;;;;;;12.89;100.00;99331.16;10368449;28;19980;-81
2022/03/16 12:07:05;;;;;;;;;;;;;;;12.80;98.96;99330.34;10383728;28;19956;-86
2022/03/16 12:17:34;;;;;;;;;;;;;;;13.51;100.00;99314.84;10389443;28;20562;-82
2022/03/16 12:22:36;;;;;;;;;;;;;;;14.11;99.76;99308.63;10410285;28;19940;-83
2022/03/16 12:33:04;;;;;;;;;;;;;;;14.11;87.88;99303.22;10394406;28;19925;-80
2022/03/16 12:38:08;;;;;;;;;;;;;;;13.13;94.69;99294.94;10382246;28;19929;-82
2022/03/16 12:43:09;;;;;;;;;;;;;;;13.03;94.70;99296.03;10362873;28;19929;-82
2022/03/16 12:48:12;;;;;;;;;;;;;;;12.84;100.00;99292.81;10360338;28;20001;-81
2022/03/16 12:53:32;;;;;;;;;;;;;;;14.25;94.07;99297.63;10384163;28;20005;-82
2022/03/16 12:58:37;;;;;;;;;;;;;;;14.48;83.10;99295.53;10361260;28;19944;-82
2022/03/16 13:03:41;;;;;;;;;;;;;;;13.73;91.40;99286.13;10403077;28;19925;-81
2022/03/16 13:09:05;;;;;;;;;;;;;;;13.70;94.50;99284.84;10354016;28;19932;-81
2022/03/16 13:14:07;;;;;;;;;;;;;;;14.03;88.01;99279.72;10398091;28;20262;-80
2022/03/16 13:19:08;;;;;;;;;;;;;;;14.67;90.64;99270.81;10376091;28;19933;-81
2022/03/16 13:24:10;;;;;;;;;;;;;;;14.78;84.18;99256.59;10356513;28;19925;-80
2022/03/16 13:29:14;;;;;;;;;;;;;;;15.92;74.19;99254.66;10372221;28;19933;-82
2022/03/16 13:34:18;;;;;;;;;;;;;;;15.78;82.08;99256.84;10368782;28;19988;-82
2022/03/16 13:39:20;;;;;;;;;;;;;;;15.96;74.19;99263.66;10350075;28;19940;-83
2022/03/16 13:44:23;;;;;;;;;;;;;;;14.97;66.79;99261.56;10382699;28;19933;-85
2022/03/16 13:49:37;;;;;;;;;;;;;;;14.94;72.51;99253.34;10378934;28;19929;-82
2022/03/16 13:54:39;;;;;;;;;;;;;;;14.88;77.25;99252.72;10374992;28;19936;-84
2022/03/16 13:59:41;;;;;;;;;;;;;;;14.88;76.97;99247.31;10376672;28;19931;-83
2022/03/16 14:04:45;;;;;;;;;;;;;;;14.98;82.25;99241.53;10353282;28;19964;-83
2022/03/16 14:09:46;;;;;;;;;;;;;;;15.12;75.65;99233.19;10359716;28;19938;-80
2022/03/16 14:14:49;;;;;;;;;;;;;;;14.80;75.76;99240.84;10375514;28;20305;-84
2022/03/16 14:19:49;;;;;;;;;;;;;;;14.64;74.24;99241.75;10335718;28;19932;-82
2022/03/16 14:24:52;;;;;;;;;;;;;;;13.77;81.50;99239.28;10361951;28;19933;-80
2022/03/16 14:29:57;;;;;;;;;;;;;;;13.80;86.50;99244.03;10376097;28;20001;-86
2022/03/16 14:34:58;;;;;;;;;;;;;;;13.59;89.47;99235.81;10340420;28;19941;-83
2022/03/16 14:39:58;;;;;;;;;;;;;;;13.91;92.21;99228.31;10361195;28;19936;-83
2022/03/16 14:44:59;;;;;;;;;;;;;;;13.69;80.70;99226.59;10366249;28;19934;-79
2022/03/16 14:50:01;;;;;;;;;;;;;;;13.51;89.24;99225.03;10389016;28;19957;-80
2022/03/16 14:55:01;;;;;;;;;;;;;;;13.37;84.81;99220.63;10393192;28;19934;-77
2022/03/16 15:00:06;;;;;;;;;;;;;;;13.10;79.49;99216.31;10373577;28;19992;-80
2022/03/16 15:05:07;;;;;;;;;;;;;;;12.69;89.49;99205.94;10355262;28;19925;-79
2022/03/16 15:10:10;;;;;;;;;;;;;;;12.63;85.45;99192.94;10367401;28;20586;-82
2022/03/16 15:15:11;;;;;;;;;;;;;;;12.30;88.13;99187.13;10333705;28;19931;-81
2022/03/16 15:20:13;;;;;;;;;;;;;;;12.21;93.19;99179.81;10352477;28;19925;-79
2022/03/16 15:25:13;;;;;;;;;;;;;;;12.17;90.60;99178.88;10373732;28;20005;-79
2022/03/16 15:30:15;;;;;;;;;;;;;;;12.21;97.49;99168.25;10380281;28;20057;-80
2022/03/16 15:35:17;;;;;;;;;;;;;;;12.19;91.72;99163.19;10358478;28;20663;-80
2022/03/16 15:45:40;;;;;;;;;;;;;;;12.17;99.19;99149.28;10330086;28;20397;-80
2022/03/16 15:50:41;;;;;;;;;;;;;;;12.07;94.88;99163.00;10368661;28;19935;-80
2022/03/16 15:55:42;;;;;;;;;;;;;;;11.99;95.17;99176.41;10381745;28;19929;-80
2022/03/16 16:00:42;;;;;;;;;;;;;;;11.72;96.03;99180.03;10374312;28;19940;-79
2022/03/16 16:05:42;;;;;;;;;;;;;;;11.80;100.00;99182.81;10374253;28;20475;-79
2022/03/16 16:11:07;;;;;;;;;;;;;;;11.78;100.00;99181.50;10379139;28;19930;-79
2022/03/16 16:16:05;;;;;;;;;;;;;;;11.52;100.00;99184.00;10350503;28;19965;-79
2022/03/16 16:21:08;;;;;;;;;;;;;;;11.45;100.00;99181.78;10355822;28;19936;-80
2022/03/16 16:26:10;;;;;;;;;;;;;;;11.32;100.00;99180.72;10358067;28;20380;-80
2022/03/16 16:31:11;;;;;;;;;;;;;;;11.14;100.00;99184.38;10369120;28;19937;-81
2022/03/16 16:36:13;;;;;;;;;;;;;;;11.02;100.00;99179.53;10367537;28;20422;-82
2022/03/16 16:41:16;;;;;;;;;;;;;;;10.91;100.00;99170.13;10368105;28;20005;-80
2022/03/16 16:46:18;;;;;;;;;;;;;;;10.70;100.00;99175.16;10346910;28;20014;-79
2022/03/16 16:51:19;;;;;;;;;;;;;;;10.51;100.00;99174.47;10364607;28;19925;-79
2022/03/16 16:56:22;;;;;;;;;;;;;;;10.48;100.00;99164.34;10352563;28;19929;-80
2022/03/16 17:01:23;;;;;;;;;;;;;;;10.11;100.00;99170.69;10338520;28;19933;-80
2022/03/16 17:06:25;;;;;;;;;;;;;;;10.02;100.00;99185.88;10375480;28;20536;-78
2022/03/16 17:11:25;;;;;;;;;;;;;;;9.97;100.00;99194.84;10376331;28;19931;-80
2022/03/16 17:16:25;;;;;;;;;;;;;;;9.80;100.00;99218.72;10368778;28;19921;-80
2022/03/16 17:21:26;;;;;;;;;;;;;;;9.60;100.00;99209.13;10387943;28;19989;-79
2022/03/16 17:26:27;;;;;;;;;;;;;;;9.50;100.00;99215.44;10349228;28;19976;-81
2022/03/16 17:31:27;;;;;;;;;;;;;;;9.30;100.00;99216.56;10353363;28;20929;-80
2022/03/16 17:36:28;;;;;;;;;;;;;;;9.18;100.00;99216.22;10338638;28;20022;-80
2022/03/16 17:46:49;;;;;;;;;;;;;;;8.90;100.00;99217.16;10408984;28;19937;-80
2022/03/16 17:51:49;;;;;;;;;;;;;;;8.81;100.00;99211.66;10382011;28;19930;-80
2022/03/16 17:56:53;;;;;;;;;;;;;;;8.68;100.00;99212.34;10344211;28;19936;-80
2022/03/16 18:01:53;;;;;;;;;;;;;;;8.62;100.00;99226.88;10359805;28;19936;-79
2022/03/16 18:06:56;;;;;;;;;;;;;;;8.48;100.00;99224.09;10337423;28;20012;-79
2022/03/16 18:17:16;;;;;;;;;;;;;;;8.27;100.00;99218.94;10327976;28;19993;-79
2022/03/16 18:22:29;;;;;;;;;;;;;;;8.23;100.00;99209.13;10337708;28;19925;-78
2022/03/16 18:27:30;;;;;;;;;;;;;;;8.20;100.00;99207.78;10352620;28;19935;-80
2022/03/16 18:32:33;;;;;;;;;;;;;;;8.19;100.00;99211.53;10341639;28;19932;-80
2022/03/16 18:37:36;;;;;;;;;;;;;;;8.04;100.00;99243.78;10380272;28;19929;-79
2022/03/16 18:42:40;;;;;;;;;;;;;;;7.96;100.00;99234.50;10377727;28;20372;-78
2022/03/16 18:47:40;;;;;;;;;;;;;;;7.86;100.00;99241.81;10360594;28;19925;-78
2022/03/16 18:52:41;;;;;;;;;;;;;;;7.87;100.00;99227.38;10377037;28;19960;-79
2022/03/16 18:57:41;;;;;;;;;;;;;;;7.70;100.00;99220.56;10381424;28;19932;-79
2022/03/16 19:02:42;;;;;;;;;;;;;;;7.64;100.00;99221.69;10369212;28;19929;-79
2022/03/16 19:07:45;;;;;;;;;;;;;;;7.63;100.00;99238.00;10355333;28;19932;-79
2022/03/16 19:18:09;;;;;;;;;;;;;;;7.56;100.00;99248.19;10320903;28;19993;-80
2022/03/16 19:23:10;;;;;;;;;;;;;;;7.46;100.00;99242.94;10355531;28;20258;-80
2022/03/16 19:28:16;;;;;;;;;;;;;;;7.46;100.00;99262.44;10354722;28;19929;-85
2022/03/16 19:33:18;;;;;;;;;;;;;;;7.39;100.00;99259.28;10386575;28;19944;-80
2022/03/16 19:38:18;;;;;;;;;;;;;;;7.31;100.00;99246.50;10397318;28;19926;-79
2022/03/16 19:43:20;;;;;;;;;;;;;;;7.27;100.00;99248.94;10369504;28;19965;-83
2022/03/16 19:48:22;;;;;;;;;;;;;;;7.19;100.00;99240.72;10344472;28;19936;-80
2022/03/16 19:53:24;;;;;;;;;;;;;;;7.14;100.00;99214.88;10343553;28;20022;-79
2022/03/16 19:58:25;;;;;;;;;;;;;;;7.20;100.00;99212.94;10348333;28;19934;-79
2022/03/16 20:03:25;;;;;;;;;;;;;;;7.13;100.00;99221.25;10365726;28;19969;-80
2022/03/16 20:08:27;;;;;;;;;;;;;;;7.14;100.00;99225.53;10386365;28;19953;-80
2022/03/16 20:13:29;;;;;;;;;;;;;;;7.06;100.00;99220.78;10362391;28;19954;-81
2022/03/16 20:18:31;;;;;;;;;;;;;;;7.03;100.00;99222.13;10362990;28;19949;-80
2022/03/16 20:23:32;;;;;;;;;;;;;;;6.98;100.00;99222.16;10372928;28;19929;-79
2022/03/16 20:28:33;;;;;;;;;;;;;;;6.99;100.00;99225.63;10358516;28;19922;-80
2022/03/16 20:33:35;;;;;;;;;;;;;;;7.00;100.00;99221.88;10389035;28;19936;-80
2022/03/16 20:38:40;;;;;;;;;;;;;;;6.90;100.00;99222.72;10401638;28;19969;-82
2022/03/16 20:43:41;;;;;;;;;;;;;;;6.86;100.00;99229.72;10399137;28;19925;-84
2022/03/16 20:48:46;;;;;;;;;;;;;;;6.90;100.00;99235.28;10390209;28;20323;-78
2022/03/16 20:53:48;;;;;;;;;;;;;;;6.84;100.00;99245.16;10410113;28;19928;-78
2022/03/16 21:04:07;;;;;;;;;;;;;;;6.78;100.00;99236.41;10409181;22;19998;-80
2022/03/16 21:09:09;;;;;;;;;;;;;;;6.65;100.00;99241.53;10453705;28;19924;-80
2022/03/16 21:14:12;;;;;;;;;;;;;;;6.68;100.00;99233.78;10473876;28;19939;-81
2022/03/16 21:19:14;;;;;;;;;;;;;;;6.59;100.00;99238.09;10457531;28;19931;-81
2022/03/16 21:24:19;;;;;;;;;;;;;;;6.60;100.00;99233.56;10435073;28;19967;-80
2022/03/16 21:29:21;;;;;;;;;;;;;;;6.60;100.00;99222.88;10427582;28;19931;-78
2022/03/16 21:34:22;;;;;;;;;;;;;;;6.50;100.00;99245.88;10471394;28;19932;-80
2022/03/16 21:39:26;;;;;;;;;;;;;;;6.43;100.00;99242.69;10439931;28;20019;-79
2022/03/16 21:44:40;;;;;;;;;;;;;;;6.46;100.00;99241.31;10435918;28;19925;-80
2022/03/16 21:50:01;;;;;;;;;;;;;;;6.30;100.00;99247.78;10435559;28;19925;-80
2022/03/16 21:55:02;;;;;;;;;;;;;;;6.28;100.00;99258.72;10454150;28;20008;-79
2022/03/16 22:00:05;;;;;;;;;;;;;;;6.19;100.00;99258.47;10438572;28;19990;-79
2022/03/16 22:05:05;;;;;;;;;;;;;;;6.15;100.00;99254.75;10440863;28;20399;-78
2022/03/16 22:10:06;;;;;;;;;;;;;;;6.11;100.00;99248.34;10487452;28;19935;-79
2022/03/16 22:15:06;;;;;;;;;;;;;;;6.11;100.00;99244.88;10479184;28;19995;-81
2022/03/16 22:20:07;;;;;;;;;;;;;;;6.15;100.00;99245.97;10483567;28;20381;-79
2022/03/16 22:25:08;;;;;;;;;;;;;;;6.15;100.00;99244.09;10490616;28;19934;-80
2022/03/16 22:30:10;;;;;;;;;;;;;;;6.00;100.00;99238.78;10475926;28;20026;-78
2022/03/16 22:35:13;;;;;;;;;;;;;;;5.98;100.00;99236.38;10474195;28;19925;-81
2022/03/16 22:40:13;;;;;;;;;;;;;;;5.89;100.00;99227.31;10464488;28;19932;-79
2022/03/16 22:45:14;;;;;;;;;;;;;;;5.88;100.00;99232.91;10447567;28;19933;-79
2022/03/16 22:50:15;;;;;;;;;;;;;;;5.89;100.00;99234.50;10480428;28;19986;-79
2022/03/16 22:55:16;;;;;;;;;;;;;;;5.92;100.00;99229.44;10478756;28;19928;-81
2022/03/16 23:00:30;;;;;;;;;;;;;;;5.82;100.00;99236.63;10444955;28;20069;-82
2022/03/16 23:05:30;;;;;;;;;;;;;;;5.85;100.00;99233.44;10484018;28;20089;-79
2022/03/16 23:10:31;;;;;;;;;;;;;;;5.77;100.00;99231.31;10480132;28;19924;-79
2022/03/16 23:15:31;;;;;;;;;;;;;;;5.79;100.00;99232.66;10459900;28;19997;-79
2022/03/16 23:20:33;;;;;;;;;;;;;;;5.67;100.00;99229.47;10457922;28;19985;-79
2022/03/16 23:25:34;;;;;;;;;;;;;;;5.61;100.00;99233.19;10447092;28;19925;-81
2022/03/16 23:30:34;;;;;;;;;;;;;;;5.54;100.00;99236.09;10495943;28;19929;-79
2022/03/16 23:35:35;;;;;;;;;;;;;;;5.49;100.00;99227.34;10474345;28;19931;-79
2022/03/16 23:40:40;;;;;;;;;;;;;;;5.43;100.00;99221.19;10442085;28;20944;-80
2022/03/16 23:45:42;;;;;;;;;;;;;;;5.43;100.00;99223.88;10485456;28;19928;-80
2022/03/16 23:50:43;;;;;;;;;;;;;;;5.38;100.00;99229.16;10473054;28;20000;-79
2022/03/16 23:55:44;;;;;;;;;;;;;;;5.31;100.00;99229.44;10473203;28;19955;-79
